Glenwood, New Jersey
Current Conditions -  °F | °C
As of 4:53 PM on Sunday 21 Dec 2014 (Local Time) from KFWN Reporting Station
Overcast Overcast  
Wind Chill: 29°   Ceiling: 2600
Heat Index: 33°   Visibility: 10mi
Dew Point: 27°   Wind: 5mph
Humidity: 78%   Direction: 50°NE
Pressure: 30.29"   Gusts: NA
Location:  41.25°N, 74.49°W
Report Text: KFWN 212153Z AUTO 05004KT 10SM BKN026 OVC031 01/M03 A3029 RMK AO2 SLP260 T00061028
Loading
Personal Weather Stations






























Interactive Weather Map New forecast layout! Learn more

10-Day Weather Forecast

Advertisements
Track Severe Weather on mobile